createdAt,value
2017-09-03T00:00:53.703Z,70.18
2017-09-03T00:01:54.343Z,70.18
2017-09-03T00:02:54.985Z,70.56
2017-09-03T00:03:55.747Z,69.99
2017-09-03T00:04:56.356Z,70.18
2017-09-03T00:05:56.963Z,70.18
2017-09-03T00:06:57.578Z,70.09
2017-09-03T00:07:58.190Z,70.28
2017-09-03T00:08:58.948Z,70.28
2017-09-03T00:09:59.557Z,70.28
2017-09-03T00:11:00.168Z,70.37
2017-09-03T00:12:00.776Z,70.28
2017-09-03T00:13:01.386Z,69.99
2017-09-03T00:14:01.999Z,69.80
2017-09-03T00:15:02.753Z,70.28
2017-09-03T00:16:03.362Z,69.99
2017-09-03T00:17:03.970Z,69.90
2017-09-03T00:18:04.580Z,70.18
2017-09-03T00:19:05.190Z,69.90
2017-09-03T00:20:05.827Z,69.99
2017-09-03T00:21:06.586Z,69.99
2017-09-03T00:22:07.203Z,70.09
2017-09-03T00:23:07.811Z,70.28
2017-09-03T00:24:08.421Z,70.37
2017-09-03T00:25:09.031Z,70.09
2017-09-03T00:26:09.794Z,69.99
2017-09-03T00:27:10.402Z,70.28
2017-09-03T00:28:11.010Z,70.09
2017-09-03T00:29:11.620Z,70.37
2017-09-03T00:30:12.227Z,70.84
2017-09-03T00:31:12.838Z,70.94
2017-09-03T00:32:13.444Z,70.94
2017-09-03T00:33:14.235Z,71.13
2017-09-03T00:34:14.845Z,70.94
2017-09-03T00:35:15.453Z,70.65
2017-09-03T00:36:16.061Z,70.56
2017-09-03T00:37:16.671Z,70.94
2017-09-03T00:38:17.430Z,70.84
2017-09-03T00:39:18.039Z,70.37
2017-09-03T00:40:18.650Z,70.37
2017-09-03T00:41:19.258Z,70.37
2017-09-03T00:42:19.871Z,70.56
2017-09-03T00:43:20.634Z,70.28
2017-09-03T00:44:21.241Z,70.18
2017-09-03T00:45:21.851Z,69.99
2017-09-03T00:46:22.459Z,70.28
2017-09-03T00:47:23.068Z,70.18
2017-09-03T00:48:23.677Z,70.09
2017-09-03T00:49:24.287Z,69.61
2017-09-03T00:50:25.045Z,70.28
2017-09-03T00:51:25.656Z,69.99
2017-09-03T00:52:26.272Z,70.18
2017-09-03T00:53:26.882Z,70.47
2017-09-03T00:54:27.494Z,70.56
2017-09-03T00:55:28.249Z,70.75
2017-09-03T00:56:28.859Z,70.84
2017-09-03T00:57:29.469Z,70.84
2017-09-03T00:58:30.077Z,70.94
2017-09-03T00:59:30.687Z,70.94
2017-09-03T01:00:31.445Z,70.65
2017-09-03T01:01:32.053Z,70.75
2017-09-03T01:02:32.667Z,70.84
2017-09-03T01:03:33.274Z,70.84
2017-09-03T01:04:33.882Z,71.13
2017-09-03T01:05:34.646Z,70.65
2017-09-03T01:06:35.259Z,70.94
2017-09-03T01:07:35.871Z,70.94
2017-09-03T01:08:36.477Z,70.65
2017-09-03T01:09:37.087Z,70.65
2017-09-03T01:10:37.696Z,70.75
2017-09-03T01:11:38.312Z,70.56
2017-09-03T01:12:38.928Z,70.84
2017-09-03T01:13:39.682Z,70.94
2017-09-03T01:14:40.293Z,70.84
2017-09-03T01:15:40.904Z,70.75
2017-09-03T01:16:41.514Z,70.56
2017-09-03T01:17:42.124Z,70.18
2017-09-03T01:18:42.882Z,69.90
2017-09-03T01:19:43.491Z,69.99
2017-09-03T01:20:44.105Z,69.90
2017-09-03T01:21:44.711Z,69.90
2017-09-03T01:22:45.319Z,70.09
2017-09-03T01:23:45.934Z,69.99
2017-09-03T01:24:46.540Z,69.90
2017-09-03T01:25:47.299Z,70.28
2017-09-03T01:26:47.910Z,70.37
2017-09-03T01:27:48.517Z,70.28
2017-09-03T01:28:49.125Z,69.71
2017-09-03T01:29:49.736Z,70.37
2017-09-03T01:30:50.496Z,70.37
2017-09-03T01:31:51.107Z,70.28
2017-09-03T01:32:51.715Z,70.09
2017-09-03T01:33:52.324Z,70.18
2017-09-03T01:34:52.933Z,70.28
2017-09-03T01:35:53.694Z,70.37
2017-09-03T01:36:54.307Z,70.09
2017-09-03T01:37:54.922Z,70.18
2017-09-03T01:38:55.535Z,69.80
2017-09-03T01:39:56.176Z,70.37
2017-09-03T01:40:56.934Z,70.18
2017-09-03T01:41:57.545Z,70.37
2017-09-03T01:42:58.154Z,69.90
2017-09-03T01:43:58.771Z,70.18
2017-09-03T01:44:59.382Z,69.99
2017-09-03T01:46:00.138Z,70.28
2017-09-03T01:47:00.751Z,70.18
2017-09-03T01:48:01.357Z,70.09
2017-09-03T01:49:01.965Z,69.90
2017-09-03T01:50:02.576Z,70.28
2017-09-03T01:51:03.334Z,70.37
2017-09-03T01:52:03.944Z,70.56
2017-09-03T01:53:04.553Z,69.99
2017-09-03T01:54:05.162Z,70.09
2017-09-03T01:55:05.771Z,69.99
2017-09-03T01:56:06.533Z,70.09
2017-09-03T01:57:07.140Z,70.18
2017-09-03T01:58:07.746Z,69.90
2017-09-03T01:59:08.356Z,70.09
2017-09-03T02:00:08.971Z,70.18
2017-09-03T02:01:09.727Z,70.18
2017-09-03T02:02:10.342Z,70.28
2017-09-03T02:03:10.948Z,69.71
2017-09-03T02:04:11.557Z,69.71
2017-09-03T02:05:12.165Z,69.52
2017-09-03T02:06:12.961Z,69.90
2017-09-03T02:07:13.572Z,70.09
2017-09-03T02:08:14.179Z,69.99
2017-09-03T02:09:14.818Z,70.09
2017-09-03T02:10:15.432Z,69.71
2017-09-03T02:11:16.188Z,69.80
2017-09-03T02:12:16.800Z,69.99
2017-09-03T02:13:17.410Z,69.71
2017-09-03T02:14:18.017Z,69.71
2017-09-03T02:15:18.632Z,69.42
2017-09-03T02:16:19.387Z,70.18
2017-09-03T02:17:20.000Z,69.99
2017-09-03T02:18:20.603Z,69.61
2017-09-03T02:19:21.213Z,70.09
2017-09-03T02:20:21.873Z,70.09
2017-09-03T02:21:22.611Z,69.71
2017-09-03T02:22:23.227Z,69.99
2017-09-03T02:23:23.833Z,69.80
2017-09-03T02:24:24.442Z,69.52
2017-09-03T02:25:25.051Z,69.33
2017-09-03T02:26:25.816Z,69.61
2017-09-03T02:27:26.423Z,69.52
2017-09-03T02:28:27.031Z,69.61
2017-09-03T02:29:27.640Z,69.90
2017-09-03T02:30:28.251Z,69.04
2017-09-03T02:31:29.015Z,69.42
2017-09-03T02:32:29.620Z,69.42
2017-09-03T02:33:30.233Z,69.61
2017-09-03T02:34:30.842Z,69.13
2017-09-03T02:35:31.450Z,69.23
2017-09-03T02:36:32.209Z,69.13
2017-09-03T02:37:32.819Z,69.13
2017-09-03T02:38:33.433Z,69.33
2017-09-03T02:39:34.039Z,69.13
2017-09-03T02:40:34.647Z,69.33
2017-09-03T02:41:35.412Z,69.33
2017-09-03T02:42:36.025Z,69.04
2017-09-03T02:43:36.632Z,69.04
2017-09-03T02:44:37.239Z,69.04
2017-09-03T02:45:37.849Z,68.76
2017-09-03T02:46:38.611Z,68.70
2017-09-03T02:47:39.219Z,68.76
2017-09-03T02:48:39.834Z,68.85
2017-09-03T02:49:40.474Z,68.76
2017-09-03T02:50:41.084Z,68.76
2017-09-03T02:51:41.847Z,68.76
2017-09-03T02:52:42.460Z,68.89
2017-09-03T02:53:43.067Z,69.08
2017-09-03T02:54:43.677Z,68.41
2017-09-03T02:55:44.294Z,68.38
2017-09-03T02:56:45.054Z,68.51
2017-09-03T02:57:45.668Z,68.38
2017-09-03T02:58:46.274Z,68.57
2017-09-03T02:59:46.882Z,68.23
2017-09-03T03:00:47.492Z,68.48
2017-09-03T03:01:48.252Z,68.48
2017-09-03T03:02:48.863Z,68.10
2017-09-03T03:03:49.471Z,68.29
2017-09-03T03:04:50.079Z,68.32
2017-09-03T03:05:50.690Z,68.60
2017-09-03T03:06:51.450Z,68.10
2017-09-03T03:07:52.064Z,68.10
2017-09-03T03:08:52.671Z,68.10
2017-09-03T03:09:53.281Z,68.00
2017-09-03T03:10:53.889Z,68.10
2017-09-03T03:11:54.648Z,68.10
2017-09-03T03:12:55.263Z,68.10
2017-09-03T03:13:55.875Z,68.10
2017-09-03T03:14:56.481Z,68.10
2017-09-03T03:15:57.092Z,68.19
2017-09-03T03:16:57.858Z,68.38
2017-09-03T03:17:58.469Z,67.81
2017-09-03T03:18:59.075Z,68.10
2017-09-03T03:19:59.687Z,68.00
2017-09-03T03:21:00.297Z,68.10
2017-09-03T03:22:01.057Z,68.00
2017-09-03T03:23:01.699Z,68.10
2017-09-03T03:24:02.306Z,68.10
2017-09-03T03:25:02.920Z,68.00
2017-09-03T03:26:03.541Z,67.71
2017-09-03T03:27:04.298Z,67.62
2017-09-03T03:28:04.903Z,67.43
2017-09-03T03:29:05.514Z,67.62
2017-09-03T03:30:06.131Z,67.43
2017-09-03T03:31:06.737Z,67.43
2017-09-03T03:32:07.495Z,67.43
2017-09-03T03:33:08.105Z,67.33
2017-09-03T03:34:08.749Z,67.43
2017-09-03T03:35:09.390Z,67.24
2017-09-03T03:36:09.998Z,67.62
2017-09-03T03:37:10.767Z,67.43
2017-09-03T03:38:11.370Z,67.33
2017-09-03T03:39:12.011Z,67.43
2017-09-03T03:40:12.621Z,67.62
2017-09-03T03:41:13.229Z,67.71
2017-09-03T03:42:13.990Z,67.71
2017-09-03T03:43:14.635Z,67.81
2017-09-03T03:44:15.241Z,67.52
2017-09-03T03:45:15.851Z,67.62
2017-09-03T03:46:16.459Z,67.62
2017-09-03T03:47:17.250Z,67.52
2017-09-03T03:48:17.859Z,67.52
2017-09-03T03:49:18.468Z,67.33
2017-09-03T03:50:19.078Z,67.24
2017-09-03T03:51:19.685Z,67.14
2017-09-03T03:52:20.450Z,66.96
2017-09-03T03:53:21.055Z,67.05
2017-09-03T03:54:21.665Z,67.05
2017-09-03T03:55:22.273Z,66.86
2017-09-03T03:56:22.914Z,67.24
2017-09-03T03:57:23.675Z,67.52
2017-09-03T03:58:24.285Z,67.71
2017-09-03T03:59:24.894Z,67.62
2017-09-03T04:00:25.508Z,68.00
2017-09-03T04:01:26.148Z,68.38
2017-09-03T04:02:26.912Z,68.57
2017-09-03T04:03:27.519Z,68.57
2017-09-03T04:04:28.129Z,68.48
2017-09-03T04:05:28.737Z,68.57
2017-09-03T04:06:29.378Z,68.10
2017-09-03T04:07:29.992Z,68.00
2017-09-03T04:08:30.598Z,68.10
2017-09-03T04:09:31.214Z,68.00
2017-09-03T04:10:31.818Z,68.29
2017-09-03T04:11:32.427Z,68.00
2017-09-03T04:12:33.220Z,68.00
2017-09-03T04:13:33.830Z,68.10
2017-09-03T04:14:34.442Z,68.10
2017-09-03T04:15:35.053Z,68.19
2017-09-03T04:16:35.665Z,67.43
2017-09-03T04:17:36.426Z,67.43
2017-09-03T04:18:37.038Z,67.33
2017-09-03T04:19:37.648Z,67.62
2017-09-03T04:20:38.260Z,67.90
2017-09-03T04:21:38.867Z,67.62
2017-09-03T04:22:39.627Z,67.62
2017-09-03T04:23:40.236Z,68.29
2017-09-03T04:24:40.845Z,68.29
2017-09-03T04:25:41.455Z,67.90
2017-09-03T04:26:42.070Z,67.90
2017-09-03T04:27:42.827Z,68.10
2017-09-03T04:28:43.436Z,67.90
2017-09-03T04:29:44.047Z,67.43
2017-09-03T04:30:44.655Z,67.71
2017-09-03T04:31:45.263Z,67.81
2017-09-03T04:32:46.029Z,67.52
2017-09-03T04:33:46.642Z,67.62
2017-09-03T04:34:47.248Z,67.52
2017-09-03T04:35:47.859Z,67.71
2017-09-03T04:36:48.468Z,67.62
2017-09-03T04:37:49.226Z,67.81
2017-09-03T04:38:49.845Z,67.52
2017-09-03T04:39:50.448Z,67.62
2017-09-03T04:40:51.057Z,67.52
2017-09-03T04:41:51.665Z,67.43
2017-09-03T04:42:52.274Z,67.62
2017-09-03T04:43:52.887Z,67.62
2017-09-03T04:44:53.491Z,67.05
2017-09-03T04:45:54.253Z,67.05
2017-09-03T04:46:54.861Z,67.14
2017-09-03T04:47:55.469Z,67.24
2017-09-03T04:48:56.079Z,67.33
2017-09-03T04:49:56.688Z,67.62
2017-09-03T04:50:57.454Z,67.52
2017-09-03T04:51:58.066Z,67.62
2017-09-03T04:52:58.673Z,67.71
2017-09-03T04:53:59.283Z,67.43
2017-09-03T04:54:59.896Z,67.71
2017-09-03T04:56:00.685Z,67.62
2017-09-03T04:57:01.300Z,67.81
2017-09-03T04:58:01.909Z,67.62
2017-09-03T04:59:02.520Z,67.43
2017-09-03T05:00:03.133Z,67.33
2017-09-03T05:01:03.890Z,67.33
2017-09-03T05:02:04.506Z,67.24
2017-09-03T05:03:05.112Z,67.24
2017-09-03T05:04:05.723Z,67.05
2017-09-03T05:05:06.337Z,67.33
2017-09-03T05:06:06.942Z,67.14
2017-09-03T05:07:07.551Z,67.14
2017-09-03T05:08:08.165Z,67.43
2017-09-03T05:09:08.779Z,67.24
2017-09-03T05:10:09.541Z,67.33
2017-09-03T05:11:10.152Z,67.43
2017-09-03T05:12:10.762Z,67.33
2017-09-03T05:13:11.374Z,67.14
2017-09-03T05:14:11.988Z,66.77
2017-09-03T05:15:12.746Z,66.96
2017-09-03T05:16:13.355Z,67.05
2017-09-03T05:17:13.969Z,66.48
2017-09-03T05:18:14.578Z,66.58
2017-09-03T05:19:15.188Z,66.96
2017-09-03T05:20:16.086Z,66.10
2017-09-03T05:21:16.694Z,66.96
2017-09-03T05:22:17.303Z,66.96
2017-09-03T05:23:17.921Z,66.96
2017-09-03T05:24:18.529Z,66.39
2017-09-03T05:25:19.389Z,66.10
2017-09-03T05:26:19.997Z,66.48
2017-09-03T05:27:20.614Z,66.39
2017-09-03T05:28:21.221Z,66.67
2017-09-03T05:29:21.831Z,66.39
2017-09-03T05:30:22.589Z,66.29
2017-09-03T05:31:23.200Z,66.39
2017-09-03T05:32:23.815Z,66.48
2017-09-03T05:33:24.422Z,66.39
2017-09-03T05:34:25.039Z,66.67
2017-09-03T05:35:25.799Z,66.77
2017-09-03T05:36:26.407Z,66.29
2017-09-03T05:37:27.018Z,66.20
2017-09-03T05:38:27.632Z,66.20
2017-09-03T05:39:28.271Z,66.29
2017-09-03T05:40:29.032Z,66.48
2017-09-03T05:41:29.673Z,66.20
2017-09-03T05:42:30.307Z,66.39
2017-09-03T05:43:30.930Z,66.20
2017-09-03T05:44:31.539Z,66.48
2017-09-03T05:45:32.298Z,66.20
2017-09-03T05:46:32.939Z,66.10
2017-09-03T05:47:33.548Z,66.01
2017-09-03T05:48:34.190Z,66.10
2017-09-03T05:49:34.807Z,66.10
2017-09-03T05:50:35.695Z,66.39
2017-09-03T05:51:36.304Z,66.29
2017-09-03T05:52:36.915Z,66.01
2017-09-03T05:53:37.531Z,65.72
2017-09-03T05:54:38.138Z,65.82
2017-09-03T05:55:38.899Z,66.20
2017-09-03T05:56:39.509Z,65.63
2017-09-03T05:57:40.124Z,65.82
2017-09-03T05:58:40.764Z,65.82
2017-09-03T05:59:41.375Z,65.63
2017-09-03T06:00:41.989Z,65.91
2017-09-03T06:01:42.597Z,65.82
2017-09-03T06:02:43.207Z,65.91
2017-09-03T06:03:43.972Z,65.82
2017-09-03T06:04:44.619Z,65.53
2017-09-03T06:05:45.229Z,65.44
2017-09-03T06:06:45.838Z,65.53
2017-09-03T06:07:46.452Z,66.20
2017-09-03T06:08:47.209Z,66.01
2017-09-03T06:09:47.820Z,66.10
2017-09-03T06:10:48.434Z,65.91
2017-09-03T06:11:49.043Z,65.44
2017-09-03T06:12:49.652Z,65.34
2017-09-03T06:13:50.416Z,65.53
2017-09-03T06:14:51.024Z,65.34
2017-09-03T06:15:51.633Z,65.44
2017-09-03T06:16:52.243Z,65.25
2017-09-03T06:17:52.854Z,65.25
2017-09-03T06:18:53.614Z,65.44
2017-09-03T06:19:54.224Z,65.44
2017-09-03T06:20:54.832Z,65.53
2017-09-03T06:21:55.442Z,65.34
2017-09-03T06:22:56.054Z,65.63
2017-09-03T06:23:56.814Z,65.44
2017-09-03T06:24:57.425Z,65.63
2017-09-03T06:25:58.041Z,65.16
2017-09-03T06:26:58.649Z,65.34
2017-09-03T06:27:59.258Z,65.53
2017-09-03T06:29:00.018Z,65.47
2017-09-03T06:30:00.632Z,65.09
2017-09-03T06:31:01.243Z,64.90
2017-09-03T06:32:01.854Z,65.09
2017-09-03T06:33:02.461Z,64.71
2017-09-03T06:34:03.072Z,64.71
2017-09-03T06:35:03.863Z,64.52
2017-09-03T06:36:04.473Z,64.81
2017-09-03T06:37:05.093Z,65.00
2017-09-03T06:38:05.696Z,64.71
2017-09-03T06:39:06.305Z,64.90
2017-09-03T06:40:07.067Z,64.81
2017-09-03T06:41:07.683Z,64.71
2017-09-03T06:42:08.292Z,64.62
2017-09-03T06:43:08.906Z,64.43
2017-09-03T06:44:09.516Z,64.24
2017-09-03T06:45:10.278Z,64.43
2017-09-03T06:46:10.888Z,64.71
2017-09-03T06:47:11.501Z,64.05
2017-09-03T06:48:12.114Z,64.24
2017-09-03T06:49:12.725Z,64.52
2017-09-03T06:50:13.485Z,64.33
2017-09-03T06:51:14.099Z,64.52
2017-09-03T06:52:14.711Z,64.24
2017-09-03T06:53:15.360Z,65.09
2017-09-03T06:54:15.970Z,64.94
2017-09-03T06:55:16.730Z,64.43
2017-09-03T06:56:17.353Z,64.71
2017-09-03T06:57:17.955Z,64.62
2017-09-03T06:58:18.570Z,64.62
2017-09-03T06:59:19.178Z,64.84
2017-09-03T07:00:19.941Z,64.75
2017-09-03T07:01:20.558Z,64.84
2017-09-03T07:02:21.168Z,64.75
2017-09-03T07:03:21.813Z,64.75
2017-09-03T07:04:22.425Z,64.94
2017-09-03T07:05:23.186Z,64.75
2017-09-03T07:06:23.801Z,64.94
2017-09-03T07:07:24.413Z,64.75
2017-09-03T07:08:25.024Z,64.27
2017-09-03T07:09:25.669Z,64.56
2017-09-03T07:10:26.429Z,64.46
2017-09-03T07:11:27.049Z,64.65
2017-09-03T07:12:27.689Z,64.08
2017-09-03T07:13:28.330Z,64.08
2017-09-03T07:14:28.943Z,64.37
2017-09-03T07:15:29.561Z,64.27
2017-09-03T07:16:30.326Z,64.17
2017-09-03T07:17:30.941Z,64.27
2017-09-03T07:18:31.559Z,64.46
2017-09-03T07:19:32.164Z,64.17
2017-09-03T07:20:32.776Z,64.46
2017-09-03T07:21:33.576Z,64.56
2017-09-03T07:22:34.190Z,64.46
2017-09-03T07:23:34.800Z,64.65
2017-09-03T07:24:35.410Z,64.17
2017-09-03T07:25:36.024Z,64.75
2017-09-03T07:26:36.787Z,63.79
2017-09-03T07:27:37.400Z,63.89
2017-09-03T07:28:38.045Z,64.08
2017-09-03T07:29:38.659Z,64.56
2017-09-03T07:30:39.279Z,64.75
2017-09-03T07:31:40.077Z,64.27
2017-09-03T07:32:40.694Z,64.75
2017-09-03T07:33:41.303Z,63.98
2017-09-03T07:34:41.916Z,64.46
2017-09-03T07:35:42.534Z,64.56
2017-09-03T07:36:43.293Z,64.17
2017-09-03T07:37:43.911Z,64.46
2017-09-03T07:38:44.526Z,64.46
2017-09-03T07:39:45.138Z,64.08
2017-09-03T07:40:45.749Z,64.65
2017-09-03T07:41:46.513Z,64.37
2017-09-03T07:42:47.127Z,64.46
2017-09-03T07:43:47.739Z,64.37
2017-09-03T07:44:48.358Z,64.56
2017-09-03T07:45:49.002Z,64.56
2017-09-03T07:46:49.770Z,64.17
2017-09-03T07:47:50.384Z,64.56
2017-09-03T07:48:50.993Z,64.17
2017-09-03T07:49:51.607Z,64.56
2017-09-03T07:50:52.221Z,63.70
2017-09-03T07:51:52.839Z,64.46
2017-09-03T07:52:53.599Z,64.56
2017-09-03T07:53:54.218Z,64.56
2017-09-03T07:54:54.835Z,64.08
2017-09-03T07:55:55.447Z,64.08
2017-09-03T07:56:56.059Z,64.46
2017-09-03T07:57:56.824Z,64.27
2017-09-03T07:58:57.441Z,64.17
2017-09-03T07:59:58.050Z,64.17
2017-09-03T08:00:58.664Z,63.92
2017-09-03T08:01:59.279Z,64.21
2017-09-03T08:03:00.048Z,64.21
2017-09-03T08:04:00.663Z,64.30
2017-09-03T08:05:01.273Z,64.59
2017-09-03T08:06:01.890Z,64.11
2017-09-03T08:07:02.502Z,64.59
2017-09-03T08:08:03.149Z,64.59
2017-09-03T08:09:03.766Z,64.97
2017-09-03T08:10:04.528Z,65.06
2017-09-03T08:11:05.171Z,65.19
2017-09-03T08:12:05.785Z,65.09
2017-09-03T08:13:06.398Z,64.53
2017-09-03T08:14:07.011Z,63.67
2017-09-03T08:15:07.778Z,64.81
2017-09-03T08:16:08.387Z,64.34
2017-09-03T08:17:09.002Z,64.53
2017-09-03T08:18:09.620Z,64.62
2017-09-03T08:19:10.231Z,64.72
2017-09-03T08:20:10.875Z,64.05
2017-09-03T08:21:11.496Z,64.81
2017-09-03T08:22:12.255Z,64.81
2017-09-03T08:23:12.870Z,64.43
2017-09-03T08:24:13.484Z,64.24
2017-09-03T08:25:14.100Z,64.72
2017-09-03T08:26:14.721Z,64.62
2017-09-03T08:27:15.511Z,64.53
2017-09-03T08:28:16.130Z,64.14
2017-09-03T08:29:16.746Z,64.81
2017-09-03T08:30:17.357Z,65.19
2017-09-03T08:31:17.970Z,65.47
2017-09-03T08:32:18.733Z,65.76
2017-09-03T08:33:19.346Z,65.19
2017-09-03T08:34:19.966Z,65.19
2017-09-03T08:35:20.576Z,65.09
2017-09-03T08:36:21.195Z,65.09
2017-09-03T08:37:21.955Z,65.57
2017-09-03T08:38:22.569Z,66.42
2017-09-03T08:39:23.187Z,66.24
2017-09-03T08:40:23.796Z,66.27
2017-09-03T08:41:24.412Z,66.74
2017-09-03T08:42:25.177Z,66.46
2017-09-03T08:43:25.792Z,66.46
2017-09-03T08:44:26.410Z,65.60
2017-09-03T08:45:27.021Z,65.41
2017-09-03T08:46:27.633Z,65.13
2017-09-03T08:47:28.396Z,65.51
2017-09-03T08:48:29.013Z,65.47
2017-09-03T08:49:29.631Z,64.84
2017-09-03T08:50:30.241Z,65.51
2017-09-03T08:51:30.863Z,65.70
2017-09-03T08:52:31.623Z,66.17
2017-09-03T08:53:32.239Z,65.99
2017-09-03T08:54:32.852Z,65.03
2017-09-03T08:55:33.465Z,64.72
2017-09-03T08:56:34.080Z,65.47
2017-09-03T08:57:34.698Z,65.38
2017-09-03T08:58:35.317Z,64.72
2017-09-03T08:59:35.963Z,64.62
2017-09-03T09:00:36.576Z,64.72
2017-09-03T09:01:37.341Z,65.57
2017-09-03T09:02:37.954Z,65.38
2017-09-03T09:03:38.606Z,65.67
2017-09-03T09:04:39.217Z,65.60
2017-09-03T09:05:39.830Z,65.51
2017-09-03T09:06:40.593Z,65.19
2017-09-03T09:07:41.208Z,65.22
2017-09-03T09:08:41.822Z,64.84
2017-09-03T09:09:42.434Z,64.84
2017-09-03T09:10:43.049Z,64.27
2017-09-03T09:11:43.814Z,64.37
2017-09-03T09:12:44.435Z,64.08
2017-09-03T09:13:45.046Z,63.89
2017-09-03T09:14:45.659Z,64.37
2017-09-03T09:15:46.273Z,64.46
2017-09-03T09:16:47.036Z,65.03
2017-09-03T09:17:47.655Z,64.75
2017-09-03T09:18:48.301Z,64.31
2017-09-03T09:19:48.952Z,64.78
2017-09-03T09:20:49.562Z,64.50
2017-09-03T09:21:50.330Z,63.83
2017-09-03T09:22:50.942Z,63.73
2017-09-03T09:23:51.558Z,62.88
2017-09-03T09:24:52.171Z,62.21
2017-09-03T09:25:52.786Z,62.21
2017-09-03T09:26:53.550Z,62.02
2017-09-03T09:27:54.172Z,62.40
2017-09-03T09:28:54.783Z,62.43
2017-09-03T09:29:55.399Z,62.05
2017-09-03T09:30:56.019Z,61.86
2017-09-03T09:31:56.781Z,61.58
2017-09-03T09:32:57.427Z,61.48
2017-09-03T09:33:58.041Z,60.44
2017-09-03T09:34:58.692Z,60.63
2017-09-03T09:35:59.308Z,60.82
2017-09-03T09:37:00.071Z,60.53
2017-09-03T09:38:00.687Z,60.75
2017-09-03T09:39:01.308Z,60.75
2017-09-03T09:40:01.922Z,60.66
2017-09-03T09:41:02.536Z,59.03
2017-09-03T09:42:03.303Z,58.15
2017-09-03T09:43:03.918Z,59.10
2017-09-03T09:44:04.539Z,59.01
2017-09-03T09:45:05.163Z,59.10
2017-09-03T09:46:05.808Z,57.29
2017-09-03T09:47:06.570Z,57.39
2017-09-03T09:48:07.186Z,58.28
2017-09-03T09:49:07.805Z,57.60
2017-09-03T09:50:08.420Z,58.18
2017-09-03T09:51:09.035Z,58.28
2017-09-03T09:52:09.802Z,58.18
2017-09-03T09:53:10.418Z,57.99
2017-09-03T09:54:11.038Z,57.92
2017-09-03T09:55:11.656Z,57.07
2017-09-03T09:56:12.271Z,57.23
2017-09-03T09:57:13.039Z,56.27
2017-09-03T09:58:13.654Z,55.90
2017-09-03T09:59:14.271Z,57.04
2017-09-03T10:00:14.886Z,57.42
2017-09-03T10:01:15.507Z,58.28
2017-09-03T10:02:16.270Z,59.06
2017-09-03T10:03:16.887Z,58.97
2017-09-03T10:04:17.535Z,59.45
2017-09-03T10:05:18.187Z,58.97
2017-09-03T10:06:18.808Z,58.69
2017-09-03T10:07:19.607Z,58.21
2017-09-03T10:08:20.231Z,58.30
2017-09-03T10:09:20.842Z,58.87
2017-09-03T10:10:21.459Z,59.67
2017-09-03T10:11:22.077Z,59.28
2017-09-03T10:12:22.882Z,59.09
2017-09-03T10:13:23.497Z,58.72
2017-09-03T10:14:24.115Z,57.28
2017-09-03T10:15:24.732Z,57.95
2017-09-03T10:16:25.346Z,57.76
2017-09-03T10:17:26.151Z,57.86
2017-09-03T10:18:26.764Z,58.04
2017-09-03T10:19:27.380Z,58.72
2017-09-03T10:20:27.996Z,58.24
2017-09-03T10:21:28.612Z,58.24
2017-09-03T10:22:29.380Z,58.14
2017-09-03T10:23:30.028Z,57.57
2017-09-03T10:24:30.644Z,57.38
2017-09-03T10:25:31.269Z,58.04
2017-09-03T10:26:31.885Z,58.33
2017-09-03T10:27:32.650Z,58.24
2017-09-03T10:28:33.267Z,57.38
2017-09-03T10:29:33.884Z,56.81
2017-09-03T10:30:34.500Z,57.28
2017-09-03T10:31:35.117Z,57.19
2017-09-03T10:32:35.899Z,57.31
2017-09-03T10:33:36.507Z,57.41
2017-09-03T10:34:37.127Z,56.74
2017-09-03T10:35:37.783Z,56.55
2017-09-03T10:36:38.399Z,56.74
2017-09-03T10:37:39.198Z,57.50
2017-09-03T10:38:39.825Z,57.41
2017-09-03T10:39:40.446Z,57.82
2017-09-03T10:40:41.066Z,57.34
2017-09-03T10:41:41.684Z,57.06
2017-09-03T10:42:42.452Z,56.48
2017-09-03T10:43:43.078Z,55.24
2017-09-03T10:44:43.695Z,56.10
2017-09-03T10:45:44.312Z,56.77
2017-09-03T10:46:44.934Z,56.29
2017-09-03T10:47:45.702Z,55.98
2017-09-03T10:48:46.322Z,55.60
2017-09-03T10:49:46.940Z,55.12
2017-09-03T10:50:47.564Z,55.21
2017-09-03T10:51:48.180Z,55.21
2017-09-03T10:52:48.949Z,55.12
2017-09-03T10:53:49.573Z,55.60
2017-09-03T10:54:50.192Z,56.46
2017-09-03T10:55:50.821Z,56.46
2017-09-03T10:56:51.430Z,56.46
2017-09-03T10:57:52.232Z,56.67
2017-09-03T10:58:52.851Z,56.58
2017-09-03T10:59:53.470Z,55.27
2017-09-03T11:00:54.093Z,53.93
2017-09-03T11:01:54.710Z,52.48
2017-09-03T11:02:55.367Z,52.86
2017-09-03T11:03:55.988Z,53.24
2017-09-03T11:04:56.754Z,52.86
2017-09-03T11:05:57.374Z,54.10
2017-09-03T11:06:57.993Z,53.81
2017-09-03T11:07:58.616Z,54.00
2017-09-03T11:08:59.231Z,53.55
2017-09-03T11:09:59.883Z,53.74
2017-09-03T11:11:00.653Z,53.08
2017-09-03T11:12:01.271Z,53.27
2017-09-03T11:13:01.891Z,53.27
2017-09-03T11:14:02.509Z,53.36
2017-09-03T11:15:03.128Z,52.98
2017-09-03T11:16:03.904Z,53.27
2017-09-03T11:17:04.523Z,52.59
2017-09-03T11:18:05.145Z,52.40
2017-09-03T11:19:05.762Z,52.40
2017-09-03T11:20:06.379Z,52.22
2017-09-03T11:21:07.149Z,50.31
2017-09-03T11:22:07.767Z,49.35
2017-09-03T11:23:08.387Z,50.78
2017-09-03T11:24:09.009Z,51.35
2017-09-03T11:25:09.627Z,51.35
2017-09-03T11:26:10.395Z,50.98
2017-09-03T11:27:11.014Z,50.02
2017-09-03T11:28:11.668Z,50.40
2017-09-03T11:29:12.283Z,51.17
2017-09-03T11:30:12.903Z,51.54
2017-09-03T11:31:13.523Z,51.35
2017-09-03T11:32:14.141Z,51.29
2017-09-03T11:33:14.767Z,50.40
2017-09-03T11:34:15.533Z,50.71
2017-09-03T11:35:16.154Z,51.00
2017-09-03T11:36:16.776Z,50.62
2017-09-03T11:37:17.428Z,48.90
2017-09-03T11:38:18.054Z,47.47
2017-09-03T11:39:18.826Z,46.48
2017-09-03T11:40:19.446Z,48.11
2017-09-03T11:41:20.062Z,48.59
2017-09-03T11:42:20.681Z,50.12
2017-09-03T11:43:21.301Z,49.18
2017-09-03T11:44:22.071Z,49.38
2017-09-03T11:45:22.691Z,48.33
2017-09-03T11:46:23.309Z,48.59
2017-09-03T11:47:23.929Z,48.71
2017-09-03T11:48:24.547Z,48.68
2017-09-03T11:49:25.318Z,49.09
2017-09-03T11:50:25.943Z,50.04
2017-09-03T11:51:26.592Z,49.76
2017-09-03T11:52:27.212Z,48.33
2017-09-03T11:53:27.833Z,48.04
2017-09-03T11:54:28.634Z,48.54
2017-09-03T11:55:29.253Z,47.58
2017-09-03T11:56:29.874Z,47.68
2017-09-03T11:57:30.500Z,47.58
2017-09-03T11:58:31.115Z,47.39
2017-09-03T11:59:31.742Z,47.47
2017-09-03T12:00:32.358Z,46.61
2017-09-03T12:01:32.984Z,47.56
2017-09-03T12:02:33.606Z,47.49
2017-09-03T12:03:34.225Z,47.68
2017-09-03T12:04:34.994Z,47.20
2017-09-03T12:05:35.615Z,46.82
2017-09-03T12:06:36.234Z,45.39
2017-09-03T12:07:36.856Z,44.79
2017-09-03T12:08:37.507Z,44.89
2017-09-03T12:09:38.278Z,45.27
2017-09-03T12:10:38.930Z,45.92
2017-09-03T12:11:39.579Z,45.82
2017-09-03T12:12:40.199Z,46.87
2017-09-03T12:13:40.824Z,47.47
2017-09-03T12:14:41.598Z,47.66
2017-09-03T12:15:42.250Z,46.89
2017-09-03T12:16:42.867Z,47.78
2017-09-03T12:17:43.489Z,47.30
2017-09-03T12:18:44.109Z,47.01
2017-09-03T12:19:44.877Z,46.27
2017-09-03T12:20:45.503Z,45.79
2017-09-03T12:21:46.127Z,45.20
2017-09-03T12:22:46.781Z,44.81
2017-09-03T12:23:47.399Z,45.10
2017-09-03T12:24:48.170Z,46.25
2017-09-03T12:25:48.791Z,45.96
2017-09-03T12:26:49.410Z,45.58
2017-09-03T12:27:50.030Z,45.77
2017-09-03T12:28:50.650Z,45.87
2017-09-03T12:29:51.452Z,44.81
2017-09-03T12:30:52.077Z,45.39
2017-09-03T12:31:52.701Z,45.29
2017-09-03T12:32:53.320Z,45.31
2017-09-03T12:33:53.939Z,45.01
2017-09-03T12:34:54.590Z,45.39
2017-09-03T12:35:55.210Z,45.01
2017-09-03T12:36:55.985Z,45.10
2017-09-03T12:37:56.600Z,46.27
2017-09-03T12:38:57.219Z,44.74
2017-09-03T12:39:57.845Z,44.34
2017-09-03T12:40:58.461Z,44.34
2017-09-03T12:41:59.231Z,45.39
2017-09-03T12:42:59.850Z,45.39
2017-09-03T12:44:00.477Z,44.93
2017-09-03T12:45:01.093Z,44.17
2017-09-03T12:46:01.715Z,44.17
2017-09-03T12:47:02.490Z,44.84
2017-09-03T12:48:03.110Z,44.74
2017-09-03T12:49:03.731Z,43.69
2017-09-03T12:50:04.351Z,42.93
2017-09-03T12:51:04.970Z,43.88
2017-09-03T12:52:05.748Z,44.55
2017-09-03T12:53:06.364Z,44.65
2017-09-03T12:54:06.991Z,44.48
2017-09-03T12:55:07.644Z,43.52
2017-09-03T12:56:08.297Z,42.37
2017-09-03T12:57:09.068Z,41.97
2017-09-03T12:58:09.687Z,42.16
2017-09-03T12:59:10.340Z,41.97
2017-09-03T13:00:10.979Z,42.24
2017-09-03T13:01:11.610Z,43.66